Sherry, Wisconsin
Current Conditions -  °F | °C
As of 1:54 PM on Saturday 20 Dec 2014 (Local Time) from KMFI Reporting Station
Haze Haze  
Wind Chill: 23°   Ceiling: 1200
Heat Index: 30°   Visibility: 5mi
Dew Point: 25°   Wind: 7mph
Humidity: 82%   Direction: 150°SSE
Pressure: 30.17"   Gusts: NA
Location:  44.6004°N, 89.889°W
Report Text: KMFI 201954Z AUTO 15006KT 5SM HZ OVC012 M01/M04 A3017 RMK AO2 SLP234 T10111039
Loading
Personal Weather Stations






























Interactive Weather Map New forecast layout! Learn more

10-Day Weather Forecast

Advertisements
Track Severe Weather on mobile